Time;durP1;ratioP1;P1;durP2;ratioP2;P2;SDS_P1;SDS_P2;PMS_P1;PMS_P2;Temp;Humidity;BMP_temperature;BMP_pressure;BME280_temperature;BME280_humidity;BME280_pressure;Samples;Min_cycle;Max_cycle;Signal;HPM_P1;HPM_P2
2023/01/09 00:02:07;;;;;;;2.37;1.60;;;;;;;9.14;95.84;98289.44;10334511;28;20065;-60
2023/01/09 00:07:10;;;;;;;2.17;1.40;;;;;;;9.10;97.51;98280.97;10346978;28;20045;-60
2023/01/09 00:12:12;;;;;;;1.92;1.50;;;;;;;9.14;98.20;98265.56;10354289;28;20082;-61
2023/01/09 00:17:14;;;;;;;1.63;1.25;;;;;;;9.24;98.60;98255.63;10352543;28;20153;-61
2023/01/09 00:22:15;;;;;;;1.40;1.30;;;;;;;9.23;98.77;98258.44;10342242;28;20200;-60
2023/01/09 00:27:19;;;;;;;1.40;1.30;;;;;;;9.16;100.00;98259.09;10345763;28;20199;-60
2023/01/09 00:32:21;;;;;;;2.03;1.60;;;;;;;9.14;100.00;98253.13;10335490;28;20047;-61
2023/01/09 00:37:22;;;;;;;3.03;1.40;;;;;;;9.16;100.00;98245.81;10356508;28;20056;-60
2023/01/09 00:42:28;;;;;;;1.75;1.52;;;;;;;9.14;100.00;98239.00;10342065;28;20041;-60
2023/01/09 00:47:35;;;;;;;5.35;2.08;;;;;;;9.16;100.00;98237.84;10344160;28;20119;-60
2023/01/09 00:52:38;;;;;;;1.83;1.60;;;;;;;9.16;100.00;98226.41;10343934;28;20049;-61
2023/01/09 00:57:41;;;;;;;2.22;2.00;;;;;;;9.18;100.00;98224.41;10352831;28;20060;-61
2023/01/09 01:02:43;;;;;;;1.85;1.75;;;;;;;9.15;100.00;98228.22;10356508;28;20054;-62
2023/01/09 01:07:45;;;;;;;2.03;1.80;;;;;;;9.15;100.00;98208.81;10347078;28;20048;-60
2023/01/09 01:12:48;;;;;;;1.85;1.50;;;;;;;9.20;100.00;98210.00;10354705;28;20057;-61
2023/01/09 01:17:50;;;;;;;1.00;0.70;;;;;;;9.23;100.00;98200.03;10348938;28;20054;-67
2023/01/09 01:22:52;;;;;;;1.50;1.00;;;;;;;9.27;100.00;98188.09;10357051;28;20053;-61
2023/01/09 01:27:53;;;;;;;1.40;1.13;;;;;;;9.25;99.62;98182.94;10352920;28;20049;-61
2023/01/09 01:32:55;;;;;;;1.92;1.25;;;;;;;9.25;99.00;98185.59;10372463;28;20056;-63
2023/01/09 01:37:57;;;;;;;1.50;1.23;;;;;;;9.14;100.00;98192.09;10372462;28;20045;-62
2023/01/09 01:42:58;;;;;;;1.50;1.40;;;;;;;9.10;100.00;98187.28;10328966;28;20053;-60
2023/01/09 01:48:11;;;;;;;1.95;1.73;;;;;;;9.06;100.00;98185.94;10347528;28;20213;-61
2023/01/09 01:53:21;;;;;;;2.15;1.90;;;;;;;9.19;100.00;98196.91;10355890;28;20044;-63
2023/01/09 01:58:26;;;;;;;2.22;2.03;;;;;;;9.08;100.00;98195.38;10354334;28;20076;-61
2023/01/09 02:03:28;;;;;;;2.60;2.40;;;;;;;9.10;100.00;98201.34;10354561;28;20049;-60
2023/01/09 02:08:31;;;;;;;2.38;1.88;;;;;;;9.09;100.00;98218.25;10347463;28;20065;-61
2023/01/09 02:13:40;;;;;;;2.00;1.80;;;;;;;9.17;100.00;98223.59;10370263;28;20500;-60
2023/01/09 02:19:04;;;;;;;1.90;1.80;;;;;;;9.17;100.00;98220.94;10327321;28;20052;-60
2023/01/09 02:24:31;;;;;;;2.65;1.85;;;;;;;9.22;100.00;98220.44;10353705;28;21366;-60
2023/01/09 02:29:45;;;;;;;2.28;1.40;;;;;;;9.16;97.85;98243.16;10356599;28;20121;-61
2023/01/09 02:35:15;;;;;;;1.83;1.65;;;;;;;9.09;98.27;98242.16;10333193;28;20049;-61
2023/01/09 02:40:24;;;;;;;1.83;1.70;;;;;;;9.05;98.65;98232.84;10346972;28;20490;-61
2023/01/09 02:45:25;;;;;;;1.45;1.17;;;;;;;9.06;97.78;98226.56;10351235;28;20713;-61
2023/01/09 02:50:50;;;;;;;1.70;1.60;;;;;;;9.03;96.79;98234.84;10356115;28;20128;-61
2023/01/09 02:56:04;;;;;;;1.77;1.52;;;;;;;9.05;96.82;98248.78;10351447;28;20124;-61
2023/01/09 03:01:26;;;;;;;1.30;1.20;;;;;;;9.05;95.10;98243.47;10349726;28;20127;-61
2023/01/09 03:06:37;;;;;;;1.48;1.05;;;;;;;9.07;94.91;98244.16;10358646;28;20049;-62
2023/01/09 03:11:43;;;;;;;2.00;1.42;;;;;;;9.09;94.52;98247.47;10355030;28;20137;-61
2023/01/09 03:16:48;;;;;;;1.35;0.77;;;;;;;9.01;93.80;98268.69;10358291;28;20551;-63
2023/01/09 03:21:51;;;;;;;0.95;0.68;;;;;;;9.00;92.31;98275.81;10343613;28;20041;-64
2023/01/09 03:26:55;;;;;;;1.23;0.70;;;;;;;9.01;91.34;98281.97;10336930;28;20100;-63
2023/01/09 03:31:57;;;;;;;0.57;0.43;;;;;;;8.90;89.89;98301.63;10345816;28;20064;-60
2023/01/09 03:36:58;;;;;;;1.05;0.45;;;;;;;8.80;89.84;98293.81;10345356;28;20370;-61
2023/01/09 03:42:01;;;;;;;1.35;0.30;;;;;;;8.75;88.86;98304.09;10338011;28;20061;-61
2023/01/09 03:47:03;;;;;;;0.77;0.30;;;;;;;8.65;88.28;98321.97;10353174;28;20088;-61
2023/01/09 03:52:04;;;;;;;0.55;0.20;;;;;;;8.72;88.40;98315.03;10346320;28;20641;-61
2023/01/09 03:57:06;;;;;;;0.32;0.10;;;;;;;8.63;88.11;98313.31;10342753;28;25794;-61
2023/01/09 04:02:07;;;;;;;0.60;0.10;;;;;;;8.63;88.47;98321.25;10348261;28;20154;-62
2023/01/09 04:07:09;;;;;;;0.25;0.10;;;;;;;8.54;88.44;98316.91;10346013;28;20045;-62
2023/01/09 04:12:11;;;;;;;0.52;0.10;;;;;;;8.47;89.29;98311.41;10349429;28;20041;-61
2023/01/09 04:17:15;;;;;;;0.30;0.10;;;;;;;8.56;88.95;98333.50;10347341;28;20052;-60
2023/01/09 04:22:16;;;;;;;0.20;0.10;;;;;;;8.59;88.83;98344.63;10343984;28;20042;-59
2023/01/09 04:27:18;;;;;;;0.75;0.28;;;;;;;8.56;87.89;98365.34;10349950;28;20046;-60
2023/01/09 04:32:19;;;;;;;0.30;0.10;;;;;;;8.47;88.04;98380.34;10342122;28;20721;-60
2023/01/09 04:37:22;;;;;;;0.00;0.00;;;;;;;8.59;87.67;98383.59;10344109;28;20046;-59
2023/01/09 04:42:23;;;;;;;0.75;0.13;;;;;;;8.63;86.83;98400.81;10337222;28;20776;-59
2023/01/09 04:47:25;;;;;;;0.10;0.08;;;;;;;8.57;87.79;98407.63;10347544;28;20077;-60
2023/01/09 04:52:27;;;;;;;0.50;0.20;;;;;;;8.42;87.83;98428.53;10339748;28;20115;-60
2023/01/09 04:57:28;;;;;;;0.30;0.10;;;;;;;8.43;89.19;98434.66;10351452;28;20045;-60
2023/01/09 05:02:30;;;;;;;0.70;0.20;;;;;;;8.47;87.85;98438.69;10340831;28;20049;-60
2023/01/09 05:07:32;;;;;;;0.63;0.10;;;;;;;8.36;88.55;98438.91;10353861;28;20050;-60
2023/01/09 05:12:35;;;;;;;0.50;0.00;;;;;;;8.28;88.34;98439.66;10337550;28;20053;-60
2023/01/09 05:17:38;;;;;;;2.65;0.10;;;;;;;8.35;88.46;98455.78;10345643;28;20049;-61
2023/01/09 05:22:39;;;;;;;1.30;0.10;;;;;;;8.23;87.95;98463.16;10343156;28;20129;-60
2023/01/09 05:27:44;;;;;;;0.50;0.10;;;;;;;8.30;87.65;98465.06;10344858;28;20125;-61
2023/01/09 05:32:46;;;;;;;1.77;0.20;;;;;;;8.37;87.89;98470.56;10348052;28;20175;-60
2023/01/09 05:37:48;;;;;;;0.32;0.17;;;;;;;8.37;87.79;98481.16;10346960;28;20065;-60
2023/01/09 05:42:49;;;;;;;0.20;0.10;;;;;;;8.34;87.69;98491.25;10345866;28;20502;-60
2023/01/09 05:47:51;;;;;;;0.20;0.08;;;;;;;8.33;88.25;98495.69;10347395;28;20582;-61
2023/01/09 05:52:52;;;;;;;1.00;0.10;;;;;;;8.14;88.66;98518.72;10347859;28;20128;-60
2023/01/09 05:57:54;;;;;;;1.90;0.25;;;;;;;8.23;88.61;98530.25;10349896;28;20057;-61
2023/01/09 06:02:55;;;;;;;0.75;0.10;;;;;;;8.19;87.53;98531.53;10358598;28;20049;-60
2023/01/09 06:07:56;;;;;;;1.15;0.10;;;;;;;8.16;88.30;98538.97;10337130;28;20497;-60
2023/01/09 06:12:58;;;;;;;0.50;0.10;;;;;;;8.03;88.71;98547.25;10346817;28;20054;-61
2023/01/09 06:18:00;;;;;;;0.68;0.13;;;;;;;7.97;88.57;98553.97;10347281;28;20199;-60
2023/01/09 06:23:01;;;;;;;1.77;0.28;;;;;;;7.88;84.91;98566.31;10351211;28;20050;-60
2023/01/09 06:28:03;;;;;;;0.90;0.20;;;;;;;7.89;84.71;98572.44;10347317;28;20076;-60
2023/01/09 06:33:06;;;;;;;1.02;0.20;;;;;;;7.92;83.39;98583.56;10353591;28;20060;-60
2023/01/09 06:38:08;;;;;;;1.92;0.20;;;;;;;8.02;83.67;98593.31;10339938;28;20102;-61
2023/01/09 06:43:09;;;;;;;1.02;0.30;;;;;;;8.01;82.45;98602.22;10362061;28;20046;-64
2023/01/09 06:48:11;;;;;;;1.90;0.20;;;;;;;8.02;81.24;98617.97;10349983;28;20618;-60
2023/01/09 06:53:13;;;;;;;2.55;0.43;;;;;;;8.01;81.04;98613.66;10354008;28;20642;-60
2023/01/09 06:58:15;;;;;;;2.22;0.32;;;;;;;8.02;79.65;98622.47;10349764;28;20049;-59
2023/01/09 07:03:18;;;;;;;1.73;0.80;;;;;;;8.02;78.99;98619.81;10367844;28;20057;-60
2023/01/09 07:08:22;;;;;;;1.70;0.32;;;;;;;8.05;77.79;98625.63;10350185;28;20205;-61
2023/01/09 07:13:23;;;;;;;3.38;1.13;;;;;;;8.02;78.34;98635.72;10360501;28;20098;-60
2023/01/09 07:18:25;;;;;;;3.42;0.40;;;;;;;8.04;77.11;98641.69;10357584;28;20045;-61
2023/01/09 07:23:26;;;;;;;3.10;0.52;;;;;;;7.92;77.39;98636.56;10358988;28;20060;-62
2023/01/09 07:28:29;;;;;;;2.17;0.52;;;;;;;7.98;77.51;98632.50;10352124;28;20060;-60
2023/01/09 07:33:30;;;;;;;2.22;0.43;;;;;;;8.03;76.97;98643.50;10348753;28;20056;-61
2023/01/09 07:38:33;;;;;;;2.50;0.63;;;;;;;8.01;77.36;98645.44;10359543;28;20525;-61
2023/01/09 07:43:38;;;;;;;2.75;0.60;;;;;;;8.05;76.83;98651.31;10346330;28;20076;-60
2023/01/09 07:48:39;;;;;;;3.33;0.85;;;;;;;8.05;76.41;98652.13;10342251;28;20366;-60
2023/01/09 07:53:42;;;;;;;1.85;0.75;;;;;;;8.06;76.69;98667.06;10354469;28;20180;-61
2023/01/09 07:58:46;;;;;;;1.90;0.50;;;;;;;8.06;77.48;98674.16;10332874;28;20777;-63
2023/01/09 08:03:47;;;;;;;3.65;1.23;;;;;;;8.11;77.72;98672.75;10346407;28;20059;-61
2023/01/09 08:08:49;;;;;;;2.25;0.63;;;;;;;8.14;77.48;98682.22;10371441;28;20654;-65
2023/01/09 08:13:51;;;;;;;3.35;0.52;;;;;;;8.12;77.98;98671.78;10331068;28;20057;-62
2023/01/09 08:18:52;;;;;;;1.55;0.47;;;;;;;8.03;78.63;98677.09;10350172;28;20060;-61
2023/01/09 08:23:55;;;;;;;2.00;0.60;;;;;;;8.04;79.09;98674.31;10328099;28;20049;-61
2023/01/09 08:28:57;;;;;;;2.30;0.60;;;;;;;8.09;79.60;98664.13;10349442;28;20053;-60
2023/01/09 08:33:58;;;;;;;2.53;0.85;;;;;;;8.11;79.87;98662.16;10370591;28;20147;-61
2023/01/09 08:39:02;;;;;;;1.77;0.47;;;;;;;8.00;79.99;98662.34;10348595;28;20053;-62
2023/01/09 08:49:24;;;;;;;3.28;0.70;;;;;;;8.00;80.59;98667.66;10341218;28;20056;-68
2023/01/09 08:54:26;;;;;;;2.00;0.57;;;;;;;8.33;79.20;98681.28;10337854;28;20053;-61
2023/01/09 08:59:31;;;;;;;3.30;0.70;;;;;;;8.46;78.41;98681.81;10310435;28;20477;-61
2023/01/09 09:04:33;;;;;;;3.88;0.45;;;;;;;8.40;78.71;98682.38;10324314;28;20049;-63
2023/01/09 09:09:36;;;;;;;2.15;0.60;;;;;;;8.55;78.61;98679.25;10336584;28;20049;-61
2023/01/09 09:20:03;;;;;;;0.98;0.32;;;;;;;8.60;77.71;98688.44;10342688;28;20045;-65
2023/01/09 09:25:06;;;;;;;1.10;0.55;;;;;;;8.72;76.71;98689.06;10331668;28;20053;-61
2023/01/09 09:30:09;;;;;;;1.27;0.40;;;;;;;8.63;76.62;98684.63;10334377;28;20053;-60
2023/01/09 09:35:11;;;;;;;1.95;0.30;;;;;;;8.67;77.11;98696.63;10329569;28;20395;-61
2023/01/09 09:40:21;;;;;;;0.90;0.38;;;;;;;8.52;77.32;98679.56;10349735;28;20192;-61
2023/01/09 09:45:42;;;;;;;0.63;0.40;;;;;;;8.64;77.48;98665.09;10305429;28;20048;-60
2023/01/09 09:51:08;;;;;;;0.65;0.10;;;;;;;8.59;77.69;98683.28;10366382;28;20099;-61
2023/01/09 09:56:14;;;;;;;1.20;0.30;;;;;;;8.87;77.08;98677.91;10359231;28;20058;-61
2023/01/09 10:01:23;;;;;;;0.75;0.20;;;;;;;8.93;78.54;98682.63;10350691;28;20045;-64
2023/01/09 10:06:33;;;;;;;1.83;0.40;;;;;;;8.94;79.68;98679.00;10360089;28;20251;-61
2023/01/09 10:11:53;;;;;;;1.92;0.45;;;;;;;9.07;80.20;98662.66;10335827;28;20063;-61
2023/01/09 10:17:06;;;;;;;1.80;0.60;;;;;;;8.93;79.85;98664.03;10357423;28;20060;-61
2023/01/09 10:22:25;;;;;;;0.88;0.15;;;;;;;8.76;80.49;98676.31;10323417;28;20063;-61
2023/01/09 10:27:54;;;;;;;2.28;0.40;;;;;;;8.68;80.13;98671.78;10325698;28;20140;-61
2023/01/09 10:33:17;;;;;;;1.25;0.60;;;;;;;8.85;79.77;98673.59;10305391;28;20103;-62
2023/01/09 10:38:37;;;;;;;3.35;0.50;;;;;;;8.77;79.86;98675.34;10345869;28;20054;-61
2023/01/09 10:43:51;;;;;;;1.08;0.40;;;;;;;9.31;78.84;98692.09;10357181;28;20072;-61
2023/01/09 10:49:05;;;;;;;2.63;0.53;;;;;;;11.11;71.35;98682.44;10365661;28;20128;-62
2023/01/09 10:54:13;;;;;;;1.03;0.30;;;;;;;11.15;68.82;98686.44;10333965;28;20291;-63
2023/01/09 10:59:15;;;;;;;1.08;0.20;;;;;;;13.11;61.24;98682.50;10345390;28;20116;-63
2023/01/09 11:04:24;;;;;;;4.25;0.45;;;;;;;11.48;66.56;98686.44;10339660;28;20053;-60
2023/01/09 11:09:26;;;;;;;1.02;0.30;;;;;;;10.99;70.04;98687.25;10290298;28;20131;-63
2023/01/09 11:14:43;;;;;;;2.20;0.40;;;;;;;14.00;59.28;98685.38;10305537;28;20127;-60
2023/01/09 11:20:06;;;;;;;2.40;0.43;;;;;;;12.42;61.40;98694.72;10348745;28;20046;-60
2023/01/09 11:25:12;;;;;;;1.60;0.22;;;;;;;11.78;64.74;98702.72;10297817;28;20053;-59
2023/01/09 11:30:25;;;;;;;2.22;0.30;;;;;;;12.01;64.06;98702.88;10347387;28;20054;-59
2023/01/09 11:35:32;;;;;;;1.73;0.40;;;;;;;11.11;66.24;98701.09;10312891;28;20053;-61
2023/01/09 11:40:46;;;;;;;1.73;0.40;;;;;;;11.21;66.00;98699.06;10321932;28;20480;-62
2023/01/09 11:46:27;;;;;;;2.40;0.40;;;;;;;17.81;46.71;98684.47;10352584;28;20146;-60
2023/01/09 11:51:32;;;;;;;0.90;0.55;;;;;;;21.61;37.04;98685.03;10339400;28;20049;-60
2023/01/09 11:56:35;;;;;;;0.95;0.32;;;;;;;20.50;38.58;98685.31;10349815;28;20105;-59
2023/01/09 12:01:54;;;;;;;1.58;0.63;;;;;;;20.88;39.03;98681.50;10348186;28;20216;-61
2023/01/09 12:07:08;;;;;;;1.10;0.38;;;;;;;21.57;35.87;98666.78;10343306;28;20187;-61
2023/01/09 12:12:21;;;;;;;1.83;0.60;;;;;;;19.07;39.94;98661.66;10349374;28;20049;-60
2023/01/09 12:17:43;;;;;;;1.70;0.60;;;;;;;17.97;42.38;98673.31;10351061;28;21011;-60
2023/01/09 12:22:59;;;;;;;2.00;0.45;;;;;;;14.15;51.27;98691.56;10341649;28;20531;-62
2023/01/09 12:28:12;;;;;;;1.13;0.38;;;;;;;12.19;58.51;98700.00;10331666;28;20053;-62
2023/01/09 12:33:36;;;;;;;1.98;0.63;;;;;;;11.61;60.38;98692.09;10330749;28;20059;-61
2023/01/09 12:38:47;;;;;;;1.73;0.70;;;;;;;11.14;62.88;98690.09;10340179;28;20045;-62
2023/01/09 12:44:18;;;;;;;0.60;0.38;;;;;;;10.67;65.99;98698.66;10324705;28;20195;-62
2023/01/09 12:49:41;;;;;;;2.53;0.60;;;;;;;10.75;66.93;98696.03;10364212;28;20059;-61
2023/01/09 12:54:48;;;;;;;1.90;0.60;;;;;;;10.75;67.33;98706.69;10351861;28;20087;-65
2023/01/09 12:59:55;;;;;;;1.30;0.75;;;;;;;10.59;67.75;98713.59;10361046;28;20215;-62
2023/01/09 13:05:07;;;;;;;5.68;0.75;;;;;;;10.94;67.07;98719.69;10352545;28;20065;-61
2023/01/09 13:10:29;;;;;;;4.55;0.55;;;;;;;10.65;68.23;98722.78;10332952;28;20197;-60
2023/01/09 13:16:09;;;;;;;1.23;0.50;;;;;;;10.95;67.07;98723.19;10337194;28;20501;-63
2023/01/09 13:21:13;;;;;;;3.00;0.65;;;;;;;10.36;69.46;98741.78;10329206;28;20056;-60
2023/01/09 13:26:24;;;;;;;1.83;0.60;;;;;;;10.20;70.46;98738.00;10331415;28;21475;-62
2023/01/09 13:31:49;;;;;;;2.78;0.85;;;;;;;10.25;69.92;98727.75;10367115;28;20076;-62
2023/01/09 13:36:54;;;;;;;3.17;0.80;;;;;;;10.24;70.46;98723.41;10347562;28;20056;-61
2023/01/09 13:47:24;;;;;;;4.13;1.27;;;;;;;9.98;68.92;98730.56;10340808;28;20552;-62
2023/01/09 13:52:36;;;;;;;1.52;0.50;;;;;;;9.76;68.88;98737.22;10349290;28;20048;-62
2023/01/09 13:57:41;;;;;;;2.15;0.52;;;;;;;10.36;67.36;98741.78;10361906;28;20288;-61
2023/01/09 14:02:48;;;;;;;0.93;0.22;;;;;;;10.69;65.35;98747.22;10355621;28;20057;-62
2023/01/09 14:08:01;;;;;;;1.70;0.60;;;;;;;10.35;65.71;98753.41;10350268;28;20049;-61
2023/01/09 14:13:13;;;;;;;2.65;0.50;;;;;;;10.38;65.44;98758.41;10334665;28;20054;-63
2023/01/09 14:18:24;;;;;;;1.33;0.40;;;;;;;10.13;65.94;98771.53;10336977;28;20041;-61
2023/01/09 14:23:33;;;;;;;2.90;0.20;;;;;;;9.86;67.46;98781.34;10350022;28;20787;-62
2023/01/09 14:29:27;;;;;;;0.65;0.20;;;;;;;9.76;67.88;98785.91;10353315;28;20053;-64
2023/01/09 14:34:36;;;;;;;0.68;0.20;;;;;;;9.59;68.86;98790.25;10345167;28;20049;-66
2023/01/09 14:39:42;;;;;;;1.92;0.30;;;;;;;9.48;69.55;98799.28;10349196;28;20072;-61
2023/01/09 14:44:49;;;;;;;0.90;0.30;;;;;;;9.37;70.14;98802.19;10342388;28;20548;-61
2023/01/09 14:49:57;;;;;;;0.88;0.20;;;;;;;9.18;70.37;98819.06;10346358;28;20450;-62
2023/01/09 14:55:02;;;;;;;0.93;0.40;;;;;;;9.10;70.23;98821.66;10344885;28;20619;-62
2023/01/09 15:00:16;;;;;;;1.83;0.38;;;;;;;8.98;70.14;98837.78;10349621;28;20130;-62
2023/01/09 15:05:24;;;;;;;2.05;0.82;;;;;;;9.01;70.19;98845.44;10354361;28;20075;-62
2023/01/09 15:10:29;;;;;;;0.85;0.30;;;;;;;8.98;69.61;98855.53;10348348;28;20373;-62
2023/01/09 15:15:31;;;;;;;2.75;0.60;;;;;;;8.96;70.05;98870.75;10343148;28;22180;-61
2023/01/09 15:20:33;;;;;;;1.60;0.50;;;;;;;8.76;70.04;98878.78;10307418;28;20053;-62
2023/01/09 15:25:36;;;;;;;0.93;0.30;;;;;;;8.83;70.41;98885.19;10334760;28;20042;-62
2023/01/09 15:30:42;;;;;;;1.13;0.43;;;;;;;8.79;70.07;98886.44;10349137;28;20541;-62
2023/01/09 15:35:46;;;;;;;1.95;0.50;;;;;;;8.84;69.66;98894.81;10349430;28;20129;-62
2023/01/09 15:40:53;;;;;;;1.80;0.30;;;;;;;8.80;69.90;98912.00;10345918;28;20060;-62
2023/01/09 15:45:55;;;;;;;1.60;0.55;;;;;;;8.82;70.03;98925.97;10353041;28;20045;-62
2023/01/09 15:51:03;;;;;;;0.75;0.30;;;;;;;8.72;72.66;98924.31;10342835;28;20064;-62
2023/01/09 15:56:22;;;;;;;2.17;0.60;;;;;;;8.61;73.13;98933.28;10344227;28;20894;-64
2023/01/09 16:01:28;;;;;;;1.42;0.32;;;;;;;8.58;72.91;98934.41;10345235;28;20050;-61
2023/01/09 16:06:33;;;;;;;2.35;0.70;;;;;;;8.44;72.81;98933.03;10332821;28;20179;-61
2023/01/09 16:11:37;;;;;;;1.98;0.60;;;;;;;8.45;73.04;98940.03;10349178;28;20568;-61
2023/01/09 16:16:40;;;;;;;1.15;0.32;;;;;;;8.53;73.28;98946.41;10343454;28;20045;-61
2023/01/09 16:21:42;;;;;;;1.23;0.32;;;;;;;8.30;72.98;98952.84;10341417;28;20057;-61
2023/01/09 16:26:43;;;;;;;1.33;0.50;;;;;;;8.36;73.14;98962.06;10348233;28;20084;-61
2023/01/09 16:31:46;;;;;;;1.13;0.30;;;;;;;8.32;72.96;98969.44;10335415;28;21658;-61
2023/01/09 16:36:47;;;;;;;1.80;0.50;;;;;;;8.34;73.31;98973.78;10334453;28;20062;-61
2023/01/09 16:47:11;;;;;;;1.92;0.60;;;;;;;8.26;72.78;98985.09;10349050;28;20114;-61
2023/01/09 16:52:15;;;;;;;1.30;0.50;;;;;;;8.32;73.13;99000.44;10344461;28;20064;-65
2023/01/09 16:57:17;;;;;;;1.55;0.50;;;;;;;8.38;73.11;99013.13;10337081;28;20092;-61
2023/01/09 17:02:19;;;;;;;1.13;0.30;;;;;;;8.31;74.12;99033.22;10349735;28;20062;-61
2023/01/09 17:07:25;;;;;;;1.58;0.40;;;;;;;8.22;74.77;99050.78;10351116;28;20048;-61
2023/01/09 17:12:26;;;;;;;1.08;0.30;;;;;;;8.17;75.18;99054.81;10353468;28;20091;-60
2023/01/09 17:17:29;;;;;;;2.30;0.40;;;;;;;8.19;75.80;99053.72;10352129;28;23223;-61
2023/01/09 17:22:31;;;;;;;1.95;0.57;;;;;;;8.22;76.28;99071.19;10352224;28;20057;-61
2023/01/09 17:32:56;;;;;;;1.52;0.60;;;;;;;8.34;76.97;99085.97;10348917;28;20050;-61
2023/01/09 17:37:58;;;;;;;2.70;0.60;;;;;;;8.31;76.92;99091.56;10353584;28;20145;-63
2023/01/09 17:42:59;;;;;;;1.02;0.70;;;;;;;8.32;76.68;99103.84;10347714;28;20054;-61
2023/01/09 17:48:00;;;;;;;2.50;0.63;;;;;;;8.29;77.35;99125.34;10354152;28;20058;-61
2023/01/09 17:53:02;;;;;;;2.47;0.73;;;;;;;8.19;77.75;99124.47;10337108;28;20080;-60
2023/01/09 17:58:03;;;;;;;1.42;0.60;;;;;;;8.03;78.15;99131.13;10343544;28;20060;-62
2023/01/09 18:03:06;;;;;;;2.15;0.68;;;;;;;7.95;79.11;99133.59;10364576;28;20053;-60
2023/01/09 18:08:12;;;;;;;1.30;0.80;;;;;;;7.85;79.38;99149.47;10367989;28;20049;-61
2023/01/09 18:13:15;;;;;;;1.35;0.70;;;;;;;7.96;79.20;99156.47;10361570;28;20056;-61
2023/01/09 18:18:16;;;;;;;1.83;0.75;;;;;;;7.98;79.03;99167.78;10365690;28;20163;-61
2023/01/09 18:23:18;;;;;;;2.75;0.63;;;;;;;7.95;78.23;99187.44;10362647;28;20041;-61
2023/01/09 18:28:19;;;;;;;2.10;0.77;;;;;;;7.91;77.44;99195.78;10365391;28;20076;-64
2023/01/09 18:33:22;;;;;;;0.75;0.40;;;;;;;7.94;76.92;99203.47;10372398;28;20071;-61
2023/01/09 18:38:24;;;;;;;0.80;0.30;;;;;;;7.96;76.54;99218.25;10351987;28;20081;-61
2023/01/09 18:43:25;;;;;;;1.50;0.35;;;;;;;7.87;74.98;99215.59;10356203;28;20053;-60
2023/01/09 18:48:27;;;;;;;1.50;0.63;;;;;;;7.72;75.28;99226.50;10340502;28;20049;-60
2023/01/09 18:53:28;;;;;;;1.23;0.50;;;;;;;7.69;75.71;99234.72;10358652;28;20041;-61
2023/01/09 18:58:32;;;;;;;1.70;0.50;;;;;;;7.68;76.04;99238.31;10364970;28;20058;-62
2023/01/09 19:03:34;;;;;;;2.05;0.60;;;;;;;7.49;75.77;99265.53;10362622;28;20065;-63
2023/01/09 19:08:35;;;;;;;2.80;0.82;;;;;;;7.43;76.20;99274.81;10364770;28;20058;-61
2023/01/09 19:13:37;;;;;;;2.45;0.85;;;;;;;7.50;76.38;99280.44;10360239;28;20156;-61
2023/01/09 19:18:40;;;;;;;3.08;1.35;;;;;;;7.51;75.94;99276.81;10351364;28;20542;-61
2023/01/09 19:23:43;;;;;;;8.48;1.85;;;;;;;7.57;76.53;99294.03;10345276;28;20189;-61
2023/01/09 19:28:46;;;;;;;1.80;0.77;;;;;;;7.57;75.23;99301.97;10348465;28;20128;-61
2023/01/09 19:33:49;;;;;;;3.50;0.90;;;;;;;7.51;75.41;99305.97;10358982;28;20080;-60
2023/01/09 19:38:58;;;;;;;1.27;0.90;;;;;;;7.47;75.13;99304.53;10352268;28;20050;-62
2023/01/09 19:44:00;;;;;;;2.95;1.27;;;;;;;7.34;75.09;99314.44;10355327;28;20053;-61
2023/01/09 19:49:03;;;;;;;1.70;0.60;;;;;;;7.38;73.86;99327.28;10349317;28;20120;-61
2023/01/09 19:54:05;;;;;;;2.28;0.70;;;;;;;7.25;74.10;99343.34;10349134;28;20055;-61
2023/01/09 19:59:06;;;;;;;2.33;0.75;;;;;;;7.30;73.59;99350.94;10350257;28;20052;-61
2023/01/09 20:04:16;;;;;;;1.95;0.60;;;;;;;7.28;72.87;99366.09;10370144;28;20053;-60
2023/01/09 20:09:26;;;;;;;2.35;0.50;;;;;;;7.29;72.34;99370.41;10353657;28;20130;-67
2023/01/09 20:14:30;;;;;;;3.60;0.80;;;;;;;7.27;71.32;99390.88;10357593;28;20088;-61
2023/01/09 20:19:32;;;;;;;1.38;0.57;;;;;;;7.25;71.74;99387.50;10356459;28;20292;-61
2023/01/09 20:24:33;;;;;;;2.40;0.50;;;;;;;7.13;72.06;99386.72;10357634;28;20494;-60
2023/01/09 20:29:35;;;;;;;2.60;1.00;;;;;;;7.15;72.37;99411.22;10345978;28;20065;-61
2023/01/09 20:34:36;;;;;;;1.77;0.98;;;;;;;7.04;72.27;99393.56;10361656;28;20083;-62
2023/01/09 20:39:40;;;;;;;4.03;1.15;;;;;;;6.94;73.20;99419.06;10352046;28;20141;-61
2023/01/09 20:44:42;;;;;;;2.92;1.05;;;;;;;6.98;73.71;99423.16;10342430;28;20053;-60
2023/01/09 20:49:43;;;;;;;2.65;1.05;;;;;;;6.97;73.80;99429.41;10350754;28;20073;-61
2023/01/09 20:54:45;;;;;;;4.25;0.80;;;;;;;6.91;73.98;99445.78;10341516;28;20045;-61
2023/01/09 20:59:47;;;;;;;2.78;0.90;;;;;;;6.89;74.59;99447.66;10347392;28;20915;-67
2023/01/09 21:04:52;;;;;;;5.13;1.70;;;;;;;6.97;74.60;99458.50;10336476;28;20053;-60
2023/01/09 21:09:54;;;;;;;3.65;1.30;;;;;;;6.95;74.87;99460.44;10341114;28;20049;-61
2023/01/09 21:15:00;;;;;;;4.60;1.23;;;;;;;6.98;74.99;99472.56;10342664;28;20069;-60
2023/01/09 21:20:07;;;;;;;3.05;1.15;;;;;;;7.00;74.98;99475.97;10336027;28;20050;-61
2023/01/09 21:25:10;;;;;;;3.92;1.10;;;;;;;6.92;75.08;99478.34;10340732;28;20053;-64
2023/01/09 21:30:11;;;;;;;2.60;0.70;;;;;;;6.91;75.46;99474.88;10343240;28;20529;-60
2023/01/09 21:35:13;;;;;;;3.15;0.90;;;;;;;6.87;75.30;99484.84;10354655;28;21209;-60
2023/01/09 21:40:17;;;;;;;2.35;1.35;;;;;;;6.93;75.43;99506.50;10336307;28;20559;-61
2023/01/09 21:50:40;;;;;;;3.22;1.20;;;;;;;6.80;76.80;99517.16;10348268;28;20059;-59
2023/01/09 21:55:43;;;;;;;2.50;1.05;;;;;;;6.85;76.91;99538.84;10347045;28;20053;-61
2023/01/09 22:00:46;;;;;;;1.70;0.60;;;;;;;6.87;76.99;99545.69;10351039;28;20059;-61
2023/01/09 22:05:47;;;;;;;4.13;0.98;;;;;;;6.94;77.34;99561.94;10361116;28;20516;-61
2023/01/09 22:10:54;;;;;;;3.25;0.90;;;;;;;6.93;77.70;99556.78;10358467;28;20405;-61
2023/01/09 22:16:03;;;;;;;2.67;1.15;;;;;;;6.92;78.83;99568.31;10354713;28;20045;-62
2023/01/09 22:21:05;;;;;;;2.42;0.80;;;;;;;6.85;78.51;99579.34;10356129;28;20057;-61
2023/01/09 22:26:11;;;;;;;2.72;1.48;;;;;;;6.77;78.89;99586.19;10357053;28;20085;-61
2023/01/09 22:31:17;;;;;;;1.60;0.70;;;;;;;6.80;78.81;99592.09;10350663;28;20045;-62
2023/01/09 22:36:19;;;;;;;2.30;1.00;;;;;;;6.86;78.91;99599.56;10336709;28;20052;-61
2023/01/09 22:41:21;;;;;;;2.90;0.98;;;;;;;6.80;78.94;99610.63;10365780;28;20053;-61
2023/01/09 22:46:23;;;;;;;4.68;0.98;;;;;;;6.86;78.84;99620.75;10370142;28;20650;-62
2023/01/09 22:51:24;;;;;;;2.90;0.93;;;;;;;6.87;78.88;99629.50;10403763;28;20037;-61
2023/01/09 22:56:26;;;;;;;4.82;1.60;;;;;;;6.88;78.69;99642.63;10373855;28;20045;-69
2023/01/09 23:01:28;;;;;;;2.03;0.80;;;;;;;6.87;78.82;99653.31;10350486;28;20050;-60
2023/01/09 23:06:29;;;;;;;2.53;0.93;;;;;;;7.00;78.41;99672.63;10350513;28;20464;-60
2023/01/09 23:16:51;;;;;;;2.63;0.90;;;;;;;7.11;77.96;99669.16;10343831;28;20057;-61
2023/01/09 23:21:55;;;;;;;1.20;0.70;;;;;;;7.14;78.30;99678.69;10346213;28;20053;-60
2023/01/09 23:26:56;;;;;;;2.70;0.80;;;;;;;7.23;78.33;99681.47;10360864;28;20046;-60
2023/01/09 23:31:59;;;;;;;1.88;1.00;;;;;;;7.25;78.37;99698.09;10355349;28;20062;-61
2023/01/09 23:37:02;;;;;;;2.25;1.40;;;;;;;7.12;78.48;99699.13;10356873;28;20053;-61
2023/01/09 23:47:25;;;;;;;2.70;1.50;;;;;;;7.05;78.97;99715.44;10357061;28;20120;-60
2023/01/09 23:52:30;;;;;;;4.20;1.10;;;;;;;7.02;78.84;99728.91;10356058;28;20072;-60
2023/01/09 23:57:31;;;;;;;2.85;1.15;;;;;;;6.98;78.88;99727.47;10342686;28;20441;-60
